Time;durP1;ratioP1;P1;durP2;ratioP2;P2;SDS_P1;SDS_P2;PMS_P1;PMS_P2;Temp;Humidity;BMP_temperature;BMP_pressure;BME280_temperature;BME280_humidity;BME280_pressure;Samples;Min_cycle;Max_cycle;Signal;HPM_P1;HPM_P2
2022/07/11 00:01:45;;;;;;;4.78;1.70;;;;;;;15.43;88.84;99989.13;6256886;28;20496;-83
2022/07/11 00:04:46;;;;;;;7.13;2.08;;;;;;;15.47;90.44;99998.44;6274748;28;20102;-84
2022/07/11 00:07:47;;;;;;;4.05;1.48;;;;;;;15.20;95.16;99993.66;6257415;28;20041;-83
2022/07/11 00:10:48;;;;;;;4.70;1.70;;;;;;;15.06;97.63;100001.81;6240398;28;20124;-81
2022/07/11 00:13:50;;;;;;;7.68;1.92;;;;;;;15.01;100.00;100006.59;6240095;28;20041;-80
2022/07/11 00:16:52;;;;;;;;;;;;;;;15.00;99.30;99999.69;6241039;28;20060;-80
2022/07/11 00:19:55;;;;;;;1.88;1.42;;;;;;;14.98;97.11;99998.97;6274161;28;20286;-82
2022/07/11 00:22:56;;;;;;;4.80;1.65;;;;;;;15.04;97.67;100001.94;6240288;28;20384;-81
2022/07/11 00:25:57;;;;;;;5.25;1.77;;;;;;;14.95;97.06;100002.69;6273012;28;20045;-82
2022/07/11 00:28:58;;;;;;;4.25;2.00;;;;;;;14.88;99.33;100006.75;6256274;28;20044;-83
2022/07/11 00:32:01;;;;;;;7.63;2.53;;;;;;;14.91;100.00;100009.16;6223756;28;20068;-81
2022/07/11 00:35:05;;;;;;;5.43;2.60;;;;;;;14.79;100.00;99997.81;6240011;28;20499;-81
2022/07/11 00:38:06;;;;;;;8.07;1.83;;;;;;;14.83;100.00;100003.66;6256660;28;20098;-82
2022/07/11 00:41:07;;;;;;;3.38;2.00;;;;;;;14.80;100.00;99996.84;6223218;28;20116;-82
2022/07/11 00:44:08;;;;;;;6.13;1.98;;;;;;;14.78;100.00;100009.25;6239696;28;20048;-82
2022/07/11 00:47:09;;;;;;;5.25;1.95;;;;;;;14.84;100.00;100006.16;6256213;28;20491;-86
2022/07/11 00:50:13;;;;;;;4.97;2.30;;;;;;;14.86;100.00;100003.41;6256022;28;20049;-81
2022/07/11 00:53:17;;;;;;;3.95;2.10;;;;;;;14.74;100.00;100007.00;6239572;28;20037;-80
2022/07/11 00:56:29;;;;;;;2.47;1.75;;;;;;;14.69;100.00;99995.06;6256215;28;20048;-81
2022/07/11 00:59:30;;;;;;;4.00;1.60;;;;;;;14.84;100.00;99994.81;6255543;28;20056;-82
2022/07/11 01:02:32;;;;;;;5.60;2.17;;;;;;;14.80;100.00;99996.00;6247217;28;20504;-82
2022/07/11 01:05:33;;;;;;;2.72;2.13;;;;;;;14.67;100.00;99986.47;6247915;28;20053;-82
2022/07/11 01:08:35;;;;;;;5.27;2.27;;;;;;;14.61;100.00;99992.22;6248845;28;20042;-85
2022/07/11 01:11:36;;;;;;;;;;;;;;;14.56;100.00;100004.03;6233563;28;20335;-85
2022/07/11 01:14:37;;;;;;;3.55;2.40;;;;;;;14.47;100.00;100009.00;6232467;28;19956;-82
2022/07/11 01:17:38;;;;;;;5.15;2.08;;;;;;;14.45;100.00;100010.94;6230999;28;20404;-85
2022/07/11 01:20:42;;;;;;;3.87;2.20;;;;;;;14.43;100.00;100007.63;6214707;28;20041;-86
2022/07/11 01:23:43;;;;;;;5.50;2.75;;;;;;;14.45;100.00;100003.06;6215741;28;20125;-82
2022/07/11 01:26:45;;;;;;;4.65;2.38;;;;;;;14.52;100.00;100006.06;6230542;28;20045;-86
2022/07/11 01:29:46;;;;;;;7.25;2.85;;;;;;;14.55;100.00;99997.91;6247678;28;20042;-85
2022/07/11 01:32:47;;;;;;;5.15;2.13;;;;;;;14.72;100.00;99994.00;6247179;28;20049;-82
2022/07/11 01:35:48;;;;;;;3.53;2.28;;;;;;;14.85;100.00;99988.63;6229997;28;20045;-81
2022/07/11 01:38:49;;;;;;;5.13;2.40;;;;;;;14.90;100.00;99995.16;6247061;28;20103;-85
2022/07/11 01:41:49;;;;;;;3.25;1.90;;;;;;;14.70;100.00;100006.41;6246814;28;20041;-85
2022/07/11 01:44:53;;;;;;;3.58;2.05;;;;;;;14.49;100.00;100004.47;6213847;28;20045;-81
2022/07/11 01:47:54;;;;;;;4.57;2.00;;;;;;;14.34;100.00;100007.47;6214637;28;20056;-85
2022/07/11 01:50:55;;;;;;;3.88;1.83;;;;;;;14.34;100.00;100004.88;6214165;28;20045;-83
2022/07/11 01:53:56;;;;;;;3.88;2.22;;;;;;;14.31;100.00;100005.94;6248158;28;20045;-83
2022/07/11 01:56:57;;;;;;;3.90;2.33;;;;;;;14.37;100.00;100007.22;6248561;28;20045;-83
2022/07/11 01:59:57;;;;;;;4.20;2.42;;;;;;;14.45;100.00;100004.84;6230036;28;20041;-83
2022/07/11 02:02:58;;;;;;;5.28;2.15;;;;;;;14.49;100.00;100014.97;6261839;28;20455;-83
2022/07/11 02:05:59;;;;;;;5.82;2.10;;;;;;;14.57;100.00;100009.16;6254861;28;20033;-82
2022/07/11 02:09:00;;;;;;;5.10;2.28;;;;;;;14.59;100.00;100012.50;6254743;28;20045;-83
2022/07/11 02:12:01;;;;;;;3.75;2.30;;;;;;;14.56;100.00;100004.03;6254861;28;20041;-80
2022/07/11 02:15:02;;;;;;;3.65;2.33;;;;;;;14.65;100.00;100008.56;6237766;28;20041;-83
2022/07/11 02:18:03;;;;;;;3.00;2.17;;;;;;;14.69;100.00;100010.84;6238399;28;20045;-79
2022/07/11 02:21:04;;;;;;;3.45;2.22;;;;;;;14.73;100.00;100014.06;6238077;28;20048;-83
2022/07/11 02:24:05;;;;;;;5.97;2.58;;;;;;;14.68;100.00;100009.19;6238975;28;20044;-79
2022/07/11 02:27:09;;;;;;;4.50;2.28;;;;;;;14.69;100.00;100015.25;6237986;28;20069;-82
2022/07/11 02:30:12;;;;;;;3.88;2.05;;;;;;;14.65;100.00;100012.03;6254117;28;20045;-79
2022/07/11 02:33:16;;;;;;;8.07;2.28;;;;;;;14.61;100.00;100010.59;6253639;28;20065;-80
2022/07/11 02:36:19;;;;;;;6.05;2.20;;;;;;;14.46;100.00;100023.13;6254127;28;20048;-83
2022/07/11 02:39:20;;;;;;;5.13;2.33;;;;;;;14.43;100.00;100017.25;6237236;28;20037;-80
2022/07/11 02:42:21;;;;;;;7.50;2.37;;;;;;;14.45;100.00;100023.22;6238067;28;20055;-83
2022/07/11 02:45:22;;;;;;;7.50;2.42;;;;;;;14.13;100.00;100021.31;6237950;28;20278;-83
2022/07/11 02:48:23;;;;;;;3.40;2.20;;;;;;;14.14;100.00;100022.97;6240311;28;20037;-79
2022/07/11 02:51:24;;;;;;;3.38;2.60;;;;;;;14.11;100.00;100025.84;6242519;28;20048;-83
2022/07/11 02:54:25;;;;;;;5.70;2.00;;;;;;;14.04;100.00;100022.00;6226727;28;20123;-83
2022/07/11 02:57:26;;;;;;;3.22;2.13;;;;;;;14.10;100.00;100024.16;6226505;28;20048;-82
2022/07/11 03:00:27;;;;;;;3.78;2.35;;;;;;;14.07;100.00;100019.97;6242613;28;20511;-82
2022/07/11 03:03:29;;;;;;;4.38;2.22;;;;;;;14.12;100.00;100011.75;6258764;28;20123;-82
2022/07/11 03:06:32;;;;;;;4.70;2.53;;;;;;;14.03;100.00;100012.47;6242752;28;20060;-82
2022/07/11 03:09:33;;;;;;;5.88;2.30;;;;;;;14.01;100.00;100017.81;6242044;28;20044;-79
2022/07/11 03:12:34;;;;;;;5.47;2.80;;;;;;;14.07;100.00;100012.09;6258595;28;20044;-81
2022/07/11 03:15:35;;;;;;;5.70;2.53;;;;;;;14.05;100.00;100018.44;6242353;28;20041;-80
2022/07/11 03:18:36;;;;;;;5.35;2.45;;;;;;;14.03;100.00;100015.09;6225634;28;20068;-82
2022/07/11 03:21:38;;;;;;;5.68;2.25;;;;;;;14.00;100.00;100008.28;6224963;28;20102;-85
2022/07/11 03:24:41;;;;;;;4.82;2.70;;;;;;;14.07;100.00;100013.91;6275944;28;20095;-82
2022/07/11 03:27:41;;;;;;;5.15;2.47;;;;;;;14.10;100.00;100016.28;6209230;28;20107;-82
2022/07/11 03:30:42;;;;;;;5.97;2.20;;;;;;;14.20;100.00;100012.00;6241795;28;20487;-85
2022/07/11 03:33:43;;;;;;;3.03;2.08;;;;;;;14.36;100.00;100013.44;6241730;28;20052;-84
2022/07/11 03:36:46;;;;;;;4.93;2.20;;;;;;;14.39;100.00;100014.06;6225566;28;20403;-85
2022/07/11 03:39:46;;;;;;;2.03;1.70;;;;;;;14.52;100.00;100024.44;6275712;28;20037;-80
2022/07/11 03:42:47;;;;;;;10.57;1.70;;;;;;;14.45;100.00;100025.84;6257587;28;20041;-82
2022/07/11 03:45:48;;;;;;;3.17;1.38;;;;;;;14.61;97.59;100025.53;6241185;28;20044;-79
2022/07/11 03:48:51;;;;;;;3.30;1.40;;;;;;;14.72;95.07;100022.88;6275451;28;20038;-81
2022/07/11 03:51:53;;;;;;;4.85;1.60;;;;;;;14.99;90.82;100022.50;6241202;28;20052;-79
2022/07/11 03:54:54;;;;;;;3.67;1.35;;;;;;;15.14;89.71;100025.69;6241066;28;20060;-83
2022/07/11 03:57:59;;;;;;;2.95;1.30;;;;;;;14.87;91.72;100031.38;6241017;28;20045;-82
2022/07/11 04:01:00;;;;;;;3.95;1.23;;;;;;;15.05;88.77;100026.41;6258406;28;20091;-81
2022/07/11 04:04:01;;;;;;;2.35;1.20;;;;;;;15.17;88.23;100037.75;6240679;28;20049;-79
2022/07/11 04:07:02;;;;;;;5.88;1.40;;;;;;;15.01;88.10;100033.72;6258894;28;20087;-78
2022/07/11 04:10:03;;;;;;;4.38;1.27;;;;;;;15.05;87.22;100034.28;6226174;28;20135;-82
2022/07/11 04:13:04;;;;;;;2.38;1.40;;;;;;;15.02;86.72;100035.38;6257816;28;20071;-80
2022/07/11 04:16:05;;;;;;;1.85;1.10;;;;;;;14.78;86.42;100030.28;6224480;28;20041;-84
2022/07/11 04:19:06;;;;;;;1.85;1.10;;;;;;;14.99;84.70;100040.91;6240650;28;22360;-84
2022/07/11 04:22:09;;;;;;;4.15;1.58;;;;;;;15.02;85.57;100045.88;6240129;28;20044;-85
2022/07/11 04:25:10;;;;;;;2.60;1.30;;;;;;;15.10;85.55;100047.91;6241353;28;20037;-83
2022/07/11 04:28:11;;;;;;;1.77;1.20;;;;;;;15.06;85.34;100046.50;6256349;28;20055;-83
2022/07/11 04:31:14;;;;;;;1.77;1.10;;;;;;;15.07;85.36;100050.78;6256264;28;20049;-82
2022/07/11 04:34:15;;;;;;;2.03;1.20;;;;;;;15.04;85.13;100051.03;6239987;28;20091;-83
2022/07/11 04:37:15;;;;;;;5.45;1.40;;;;;;;14.98;83.79;100048.91;6240205;28;20503;-82
2022/07/11 04:40:17;;;;;;;2.87;1.27;;;;;;;15.11;85.46;100049.56;6274141;28;20037;-85
2022/07/11 04:43:18;;;;;;;4.88;1.30;;;;;;;15.03;82.27;100057.22;6256623;28;20041;-84
2022/07/11 04:46:19;;;;;;;2.93;1.20;;;;;;;15.10;82.92;100064.50;6240327;28;20048;-86
2022/07/11 04:49:20;;;;;;;4.05;1.13;;;;;;;15.11;82.88;100065.34;6256595;28;20282;-84
2022/07/11 04:52:26;;;;;;;3.30;1.50;;;;;;;15.01;80.53;100064.41;6256194;28;20048;-83
2022/07/11 04:55:27;;;;;;;2.35;1.20;;;;;;;15.10;80.75;100075.03;6224245;28;20067;-82
2022/07/11 04:58:32;;;;;;;2.50;0.95;;;;;;;15.17;80.00;100080.63;6239484;28;20072;-83
2022/07/11 05:01:32;;;;;;;1.73;1.10;;;;;;;15.41;80.18;100087.50;6273175;28;20289;-83
2022/07/11 05:04:34;;;;;;;5.38;1.20;;;;;;;15.64;78.92;100083.00;6256205;28;20545;-84
2022/07/11 05:07:35;;;;;;;2.15;0.95;;;;;;;15.62;76.70;100091.00;6239169;28;20033;-79
2022/07/11 05:10:37;;;;;;;2.38;1.00;;;;;;;15.69;75.06;100084.31;6238497;28;20049;-80
2022/07/11 05:13:38;;;;;;;2.35;1.00;;;;;;;15.88;73.52;100090.72;6255094;28;20056;-80
2022/07/11 05:16:39;;;;;;;3.58;1.02;;;;;;;15.93;74.21;100092.97;6255256;28;20037;-79
2022/07/11 05:19:39;;;;;;;1.88;1.00;;;;;;;16.02;71.71;100094.81;6238806;28;20064;-80
2022/07/11 05:22:42;;;;;;;3.33;1.00;;;;;;;16.09;70.73;100096.81;6222349;28;20495;-80
2022/07/11 05:25:48;;;;;;;4.53;1.00;;;;;;;16.17;69.62;100085.66;6255391;28;20487;-81
2022/07/11 05:28:49;;;;;;;4.72;1.42;;;;;;;16.35;67.69;100095.59;6239481;28;20052;-82
2022/07/11 05:31:50;;;;;;;2.30;1.13;;;;;;;16.39;68.77;100097.00;6239016;28;20124;-83
2022/07/11 05:34:51;;;;;;;1.92;1.15;;;;;;;16.26;67.86;100103.28;6238756;28;20044;-83
2022/07/11 05:37:52;;;;;;;4.40;1.55;;;;;;;16.39;67.78;100099.63;6222255;28;20068;-83
2022/07/11 05:40:53;;;;;;;1.67;0.98;;;;;;;16.40;66.68;100096.03;6254575;28;20048;-85
2022/07/11 05:43:54;;;;;;;2.28;1.00;;;;;;;16.44;66.71;100103.53;6238511;28;20041;-82
2022/07/11 05:47:00;;;;;;;2.23;1.10;;;;;;;16.70;68.24;100111.03;6255168;28;20043;-85
2022/07/11 05:50:01;;;;;;;5.05;1.00;;;;;;;16.44;65.79;100108.00;6272527;28;20045;-86
2022/07/11 05:53:02;;;;;;;2.53;1.07;;;;;;;16.76;66.87;100113.16;6254572;28;20041;-82
2022/07/11 05:56:07;;;;;;;4.18;1.00;;;;;;;16.89;67.40;100108.50;6254454;28;20041;-83
2022/07/11 05:59:08;;;;;;;2.72;1.15;;;;;;;16.85;65.28;100122.09;6221847;28;20049;-85
2022/07/11 06:02:09;;;;;;;5.03;1.42;;;;;;;16.94;65.24;100112.53;6254772;28;20102;-84
2022/07/11 06:05:11;;;;;;;2.00;1.08;;;;;;;17.13;64.80;100117.88;6221894;28;20041;-83
2022/07/11 06:11:32;;;;;;;4.78;1.35;;;;;;;17.18;66.40;100128.03;6256942;28;20048;-81
2022/07/11 06:14:33;;;;;;;3.00;1.40;;;;;;;17.31;66.62;100112.78;6253852;28;20403;-80
2022/07/11 06:17:34;;;;;;;2.38;1.42;;;;;;;17.25;64.76;100123.88;6237621;28;20041;-82
2022/07/11 06:20:37;;;;;;;3.25;1.27;;;;;;;17.41;66.10;100123.38;6221378;28;20040;-84
2022/07/11 06:23:38;;;;;;;2.40;1.15;;;;;;;17.28;64.72;100123.63;6222073;28;20048;-82
2022/07/11 06:26:39;;;;;;;3.90;1.23;;;;;;;17.70;63.39;100124.22;6254144;28;20041;-84
2022/07/11 06:29:40;;;;;;;6.40;1.60;;;;;;;17.66;62.65;100125.47;6221632;28;20499;-83
2022/07/11 06:32:41;;;;;;;5.90;1.20;;;;;;;17.96;60.16;100131.63;6237803;28;20048;-84
2022/07/11 06:35:43;;;;;;;3.35;1.27;;;;;;;18.10;60.53;100123.28;6253653;28;20468;-83
2022/07/11 06:38:43;;;;;;;2.28;1.10;;;;;;;18.25;58.23;100123.69;6253769;28;20068;-84
2022/07/11 06:41:44;;;;;;;2.22;0.85;;;;;;;18.42;59.12;100126.59;6220916;28;20123;-83
2022/07/11 06:44:45;;;;;;;1.38;1.20;;;;;;;18.00;59.13;100119.84;6221323;28;20056;-83
2022/07/11 06:47:46;;;;;;;2.10;1.00;;;;;;;18.32;59.80;100121.31;6237410;28;20068;-83
2022/07/11 06:50:50;;;;;;;3.63;0.95;;;;;;;18.42;57.30;100118.66;6237791;28;20076;-85
2022/07/11 06:53:51;;;;;;;3.53;1.20;;;;;;;18.77;57.17;100119.81;6272024;28;20110;-83
2022/07/11 06:56:54;;;;;;;5.07;0.90;;;;;;;18.58;53.26;100126.00;6237402;28;20048;-85
2022/07/11 06:59:55;;;;;;;3.33;0.82;;;;;;;18.63;53.19;100124.56;6221965;28;20037;-86
2022/07/11 07:02:58;;;;;;;4.97;1.05;;;;;;;18.69;52.52;100129.28;6253643;28;20060;-84
2022/07/11 07:06:00;;;;;;;2.80;0.90;;;;;;;18.96;52.15;100118.91;6254927;28;20049;-85
2022/07/11 07:09:03;;;;;;;;;;;;;;;18.50;51.91;100126.69;6272438;28;20399;-85
2022/07/11 07:12:06;;;;;;;3.17;1.38;;;;;;;19.48;52.03;100130.59;6237216;28;19936;-84
2022/07/11 07:15:07;;;;;;;4.47;1.00;;;;;;;19.85;51.91;100131.47;6238717;28;20392;-83
2022/07/11 07:18:09;;;;;;;3.10;1.20;;;;;;;19.77;50.62;100129.59;6238685;28;20044;-85
2022/07/11 07:21:10;;;;;;;2.00;0.98;;;;;;;19.89;50.33;100132.84;6236844;28;20041;-83
2022/07/11 07:24:11;;;;;;;4.60;1.60;;;;;;;19.69;51.21;100130.31;6237197;28;20099;-85
2022/07/11 07:27:12;;;;;;;3.58;0.95;;;;;;;19.97;48.86;100138.19;6237717;28;20033;-80
2022/07/11 07:30:13;;;;;;;2.20;1.00;;;;;;;19.87;48.73;100138.31;6253779;28;20052;-89
2022/07/11 07:33:14;;;;;;;2.53;0.70;;;;;;;19.59;49.52;100132.19;6254577;28;20037;-86
2022/07/11 07:36:15;;;;;;;3.80;0.80;;;;;;;20.16;50.17;100134.56;6241802;28;20285;-86
2022/07/11 07:39:16;;;;;;;5.57;0.85;;;;;;;20.36;47.99;100134.38;6258313;28;20480;-86
2022/07/11 07:42:17;;;;;;;2.63;0.75;;;;;;;20.23;48.09;100122.34;6258157;28;20051;-84
2022/07/11 07:45:18;;;;;;;4.70;0.98;;;;;;;19.88;47.70;100121.41;6241853;28;20044;-86
2022/07/11 07:48:21;;;;;;;6.85;0.98;;;;;;;20.27;48.87;100130.84;6275309;28;20040;-80
2022/07/11 07:51:21;;;;;;;;;;;;;;;20.33;46.50;100131.03;6241840;28;20052;-88
2022/07/11 07:54:24;;;;;;;1.40;0.68;;;;;;;20.11;45.69;100121.75;6241102;28;19921;-84
2022/07/11 07:57:25;;;;;;;3.15;0.85;;;;;;;20.24;45.83;100133.78;6241707;28;20060;-81
2022/07/11 08:03:45;;;;;;;2.05;0.70;;;;;;;21.06;46.28;100136.94;6259575;28;20360;-82
2022/07/11 08:06:46;;;;;;;1.23;0.70;;;;;;;21.16;45.46;100134.16;6240682;28;20090;-83
2022/07/11 08:09:48;;;;;;;4.63;1.00;;;;;;;20.68;46.47;100131.13;6240691;28;20051;-82
2022/07/11 08:12:49;;;;;;;5.90;0.93;;;;;;;20.60;46.41;100131.91;6224461;28;20442;-82
2022/07/11 08:15:49;;;;;;;2.70;0.83;;;;;;;21.39;46.04;100131.75;6256623;28;20037;-83
2022/07/11 08:18:53;;;;;;;1.80;0.87;;;;;;;21.94;45.55;100133.88;6240918;28;20059;-87
2022/07/11 08:21:53;;;;;;;2.65;1.00;;;;;;;22.24;42.61;100140.38;6241576;28;20140;-85
2022/07/11 08:24:54;;;;;;;2.90;0.90;;;;;;;21.14;46.27;100137.78;6240928;28;20495;-80
2022/07/11 08:27:55;;;;;;;2.47;0.80;;;;;;;21.13;47.07;100136.16;6240000;28;20470;-82
2022/07/11 08:30:56;;;;;;;2.20;0.70;;;;;;;21.55;45.53;100129.16;6223904;28;20037;-83
2022/07/11 08:33:58;;;;;;;2.83;1.23;;;;;;;20.43;48.96;100133.59;6224217;28;20149;-86
2022/07/11 08:37:00;;;;;;;2.05;0.95;;;;;;;21.00;46.74;100126.97;6256952;28;20116;-82
2022/07/11 08:40:00;;;;;;;;;;;;;;;20.63;47.96;100134.25;6256650;28;20064;-82
2022/07/11 08:43:04;;;;;;;3.30;1.10;;;;;;;20.64;50.18;100135.91;6239489;28;19921;-80
2022/07/11 08:46:07;;;;;;;3.25;1.02;;;;;;;21.40;48.03;100130.78;6255552;28;20060;-84
2022/07/11 08:49:08;;;;;;;5.70;1.10;;;;;;;21.45;49.44;100128.47;6256568;28;20048;-87
2022/07/11 08:52:12;;;;;;;2.25;0.80;;;;;;;22.47;43.37;100127.22;6240500;28;20045;-84
2022/07/11 08:55:14;;;;;;;4.30;0.90;;;;;;;21.48;44.88;100120.22;6274347;28;20123;-81
2022/07/11 08:58:17;;;;;;;;;;;;;;;22.04;41.51;100129.22;6256315;28;20033;-77
2022/07/11 09:01:19;;;;;;;;;;;;;;;22.31;43.38;100122.75;6256580;28;19921;-84
2022/07/11 09:04:23;;;;;;;2.83;0.70;;;;;;;22.46;42.38;100114.91;6273717;28;19920;-85
2022/07/11 09:07:28;;;;;;;2.90;1.00;;;;;;;21.63;44.23;100126.53;6274044;28;20087;-83
2022/07/11 09:10:31;;;;;;;1.88;0.80;;;;;;;20.43;46.56;100128.31;6240446;28;20076;-87
2022/07/11 09:13:36;;;;;;;3.00;0.90;;;;;;;20.66;49.93;100125.16;6256180;28;20041;-87
2022/07/11 09:16:52;;;;;;;1.77;0.98;;;;;;;20.88;48.95;100123.78;6255677;28;20045;-82
2022/07/11 09:19:53;;;;;;;3.60;0.95;;;;;;;20.58;49.45;100125.09;6273140;28;20068;-86
2022/07/11 09:26:14;;;;;;;6.88;1.38;;;;;;;19.83;52.08;100131.66;6241113;28;20064;-84
2022/07/11 09:29:18;;;;;;;1.48;0.90;;;;;;;19.73;54.44;100138.81;6255234;28;20041;-85
2022/07/11 09:32:19;;;;;;;1.95;1.20;;;;;;;19.45;54.44;100138.00;6273147;28;20094;-81
2022/07/11 09:35:21;;;;;;;1.98;1.00;;;;;;;19.47;54.65;100136.03;6273051;28;20061;-86
2022/07/11 09:38:23;;;;;;;;;;;;;;;19.12;56.06;100127.88;6255688;28;20143;-81
2022/07/11 09:41:27;;;;;;;3.40;0.93;;;;;;;19.17;55.85;100127.47;6238332;28;19966;-82
2022/07/11 09:44:33;;;;;;;1.45;0.68;;;;;;;19.24;54.39;100135.63;6272591;28;20539;-85
2022/07/11 09:47:47;;;;;;;1.20;0.70;;;;;;;19.28;53.17;100129.88;6254794;28;20041;-85
2022/07/11 09:51:00;;;;;;;1.60;0.70;;;;;;;19.70;51.43;100113.47;6272573;28;20049;-85
2022/07/11 09:54:04;;;;;;;1.17;0.70;;;;;;;21.36;45.43;100110.84;6255493;28;20045;-88
2022/07/11 09:57:10;;;;;;;2.83;1.00;;;;;;;22.98;43.85;100102.13;6255030;28;20037;-87
2022/07/11 10:00:12;;;;;;;3.03;0.65;;;;;;;23.25;41.07;100106.19;6238495;28;20037;-80
2022/07/11 10:03:13;;;;;;;3.90;0.60;;;;;;;22.91;39.47;100100.16;6205496;28;20056;-82
2022/07/11 10:06:14;;;;;;;1.30;0.67;;;;;;;23.66;39.86;100109.44;6238499;28;20415;-79
2022/07/11 10:09:14;;;;;;;2.50;0.70;;;;;;;23.02;37.76;100104.31;6238925;28;20129;-81
2022/07/11 10:12:19;;;;;;;2.83;0.60;;;;;;;22.36;38.84;100106.28;6221670;28;20060;-82
2022/07/11 10:15:42;;;;;;;1.65;0.60;;;;;;;21.90;39.60;100105.97;6254098;28;20087;-80
2022/07/11 10:18:56;;;;;;;2.78;0.63;;;;;;;22.01;41.37;100103.00;6222238;28;20053;-80
2022/07/11 10:22:25;;;;;;;3.22;0.70;;;;;;;21.84;39.69;100096.00;6272225;28;20067;-91
2022/07/11 10:25:56;;;;;;;3.05;0.73;;;;;;;22.02;40.92;100093.19;6273575;28;20052;-87
2022/07/11 10:29:05;;;;;;;0.85;0.50;;;;;;;21.65;40.07;100094.50;6271707;28;20052;-79
2022/07/11 10:32:11;;;;;;;1.17;0.50;;;;;;;23.48;39.53;100091.06;6254897;28;20044;-90
2022/07/11 10:35:15;;;;;;;1.33;0.60;;;;;;;24.00;35.91;100094.03;6272794;28;20528;-91
2022/07/11 10:38:17;;;;;;;2.10;0.80;;;;;;;24.94;36.07;100099.75;6237636;28;20044;-80
2022/07/11 10:41:22;;;;;;;1.05;0.70;;;;;;;25.31;35.00;100089.94;6221949;28;20051;-90
2022/07/11 10:44:24;;;;;;;1.42;0.50;;;;;;;23.96;34.30;100092.75;6237526;28;20059;-79
2022/07/11 10:47:44;;;;;;;2.45;1.00;;;;;;;24.32;34.19;100093.72;6253256;28;20050;-79
2022/07/11 10:50:46;;;;;;;4.80;0.90;;;;;;;23.62;33.84;100080.66;6254031;28;20055;-88
2022/07/11 10:53:49;;;;;;;1.80;0.70;;;;;;;23.02;35.56;100067.06;6254238;28;20444;-87
2022/07/11 10:57:18;;;;;;;1.20;0.50;;;;;;;22.73;35.91;100080.94;6272797;28;20044;-80
2022/07/11 11:00:23;;;;;;;2.00;0.75;;;;;;;22.87;36.64;100082.06;6253410;28;20049;-80
2022/07/11 11:03:24;;;;;;;2.35;0.80;;;;;;;23.54;35.34;100082.38;6236710;28;20459;-80
2022/07/11 11:06:57;;;;;;;2.00;0.83;;;;;;;23.38;33.45;100077.16;6220685;28;20047;-83
2022/07/11 11:10:03;;;;;;;1.48;0.63;;;;;;;23.58;33.96;100066.88;6274799;28;20040;-89
2022/07/11 11:13:04;;;;;;;1.42;0.70;;;;;;;22.73;35.37;100071.16;6276446;28;20090;-81
2022/07/11 11:16:19;;;;;;;4.37;0.67;;;;;;;22.94;36.49;100062.56;6258172;28;20741;-82
2022/07/11 11:19:46;;;;;;;1.40;0.70;;;;;;;23.44;35.01;100070.31;6258003;28;20041;-80
2022/07/11 11:23:10;;;;;;;4.97;0.80;;;;;;;23.72;33.94;100079.41;6249077;28;20388;-80
2022/07/11 11:26:16;;;;;;;1.30;0.60;;;;;;;24.49;32.50;100059.75;6257726;28;20047;-80
2022/07/11 11:29:25;;;;;;;0.85;0.52;;;;;;;24.19;32.44;100053.53;6258234;28;20041;-88
2022/07/11 11:32:31;;;;;;;3.00;0.75;;;;;;;24.60;33.30;100066.44;6257808;28;20068;-76
2022/07/11 11:35:31;;;;;;;6.38;0.75;;;;;;;24.22;31.93;100049.69;6257506;28;20037;-80
2022/07/11 11:38:37;;;;;;;2.30;0.70;;;;;;;24.05;33.77;100057.00;6225537;28;20037;-90
2022/07/11 11:41:38;;;;;;;6.00;0.73;;;;;;;23.94;34.03;100060.94;6257810;28;20302;-78
2022/07/11 11:44:50;;;;;;;1.73;0.70;;;;;;;23.92;32.77;100053.13;6225627;28;20060;-91
2022/07/11 11:47:51;;;;;;;1.48;0.73;;;;;;;23.82;33.23;100051.72;6257607;28;20537;-83
2022/07/11 11:50:53;;;;;;;2.33;0.80;;;;;;;23.85;34.80;100051.38;6257325;28;20131;-79
2022/07/11 11:53:56;;;;;;;3.47;0.60;;;;;;;23.77;32.59;100049.59;6224524;28;20106;-79
2022/07/11 11:57:07;;;;;;;2.05;0.80;;;;;;;23.48;34.30;100044.97;6257847;28;20052;-88
2022/07/11 12:00:26;;;;;;;;;;;;;;;23.42;33.94;100053.69;6258808;28;20045;-81
2022/07/11 12:03:50;;;;;;;2.20;0.60;;;;;;;24.14;33.57;100038.09;6257951;28;19928;-89
2022/07/11 12:06:50;;;;;;;3.90;0.77;;;;;;;23.67;33.32;100047.16;6257455;28;20048;-79
2022/07/11 12:09:55;;;;;;;5.27;0.80;;;;;;;23.54;36.05;100052.25;6257747;28;20115;-90
2022/07/11 12:12:58;;;;;;;3.80;0.70;;;;;;;22.66;35.26;100040.91;6257863;28;20286;-87
2022/07/11 12:19:18;;;;;;;0.65;0.45;;;;;;;22.47;36.60;100043.97;6260661;28;20045;-88
2022/07/11 12:22:22;;;;;;;1.37;0.60;;;;;;;22.62;36.16;100038.78;6259097;28;20041;-90
2022/07/11 12:25:22;;;;;;;5.22;0.85;;;;;;;22.64;35.85;100044.75;6276562;28;20070;-93
2022/07/11 12:28:23;;;;;;;1.57;0.60;;;;;;;22.35;35.39;100037.38;6256603;28;20525;-80
2022/07/11 12:31:25;;;;;;;2.77;0.50;;;;;;;22.48;35.96;100041.13;6239885;28;20048;-81
2022/07/11 12:34:44;;;;;;;1.08;0.47;;;;;;;22.49;35.99;100034.00;6256469;28;20044;-82
2022/07/11 12:37:46;;;;;;;2.53;0.63;;;;;;;22.43;35.08;100035.50;6274570;28;20488;-92
2022/07/11 12:41:05;;;;;;;1.07;0.80;;;;;;;22.33;35.30;100033.03;6240173;28;20048;-81
2022/07/11 12:47:29;;;;;;;4.80;0.70;;;;;;;22.53;35.17;100030.81;6259510;28;20096;-88
2022/07/11 12:50:30;;;;;;;4.28;0.68;;;;;;;22.98;33.98;100025.81;6274197;28;20049;-81
2022/07/11 12:53:31;;;;;;;1.67;0.90;;;;;;;23.21;34.08;100027.69;6224964;28;20128;-90
2022/07/11 12:56:34;;;;;;;3.13;0.67;;;;;;;23.44;34.93;100023.19;6223231;28;20122;-79
2022/07/11 12:59:38;;;;;;;2.60;1.00;;;;;;;23.42;35.74;100024.38;6239036;28;20352;-80
2022/07/11 13:02:39;;;;;;;2.00;0.63;;;;;;;23.10;34.59;100027.09;6256269;28;20061;-90
2022/07/11 13:06:09;;;;;;;1.47;0.80;;;;;;;22.56;35.70;100027.00;6223622;28;20090;-83
2022/07/11 13:09:16;;;;;;;9.85;0.80;;;;;;;22.29;38.47;100034.38;6236747;28;20088;-81
2022/07/11 13:12:17;;;;;;;1.58;0.82;;;;;;;22.30;40.21;100043.22;6273417;28;20048;-81
2022/07/11 13:15:18;;;;;;;0.80;0.60;;;;;;;22.09;39.16;100033.91;6239134;28;20053;-81
2022/07/11 13:18:19;;;;;;;1.75;0.75;;;;;;;22.19;38.64;100033.72;6255256;28;20513;-82
2022/07/11 13:21:20;;;;;;;2.47;0.93;;;;;;;22.51;38.27;100032.00;6222523;28;20033;-82
2022/07/11 13:24:21;;;;;;;1.30;0.60;;;;;;;22.45;37.72;100025.53;6223013;28;20041;-90
2022/07/11 13:27:22;;;;;;;1.17;0.80;;;;;;;22.78;37.66;100030.72;6222382;28;20056;-90
2022/07/11 13:30:27;;;;;;;2.60;0.60;;;;;;;22.86;36.62;100022.72;6239103;28;20041;-82
2022/07/11 13:33:28;;;;;;;5.45;1.60;;;;;;;22.68;37.42;100014.16;6254459;28;20068;-81
2022/07/11 13:36:29;;;;;;;2.22;0.80;;;;;;;22.71;37.11;100014.63;6273296;28;20048;-92
2022/07/11 13:39:32;;;;;;;2.87;0.70;;;;;;;22.99;36.64;100024.78;6223392;28;20056;-93
2022/07/11 13:42:33;;;;;;;3.67;0.80;;;;;;;23.65;37.27;100016.38;6239825;28;20044;-91
2022/07/11 13:45:37;;;;;;;0.80;0.60;;;;;;;24.04;35.11;100008.22;6239550;28;20050;-80
2022/07/11 13:48:41;;;;;;;0.93;0.55;;;;;;;24.11;35.16;100002.97;6272116;28;20083;-82
2022/07/11 13:51:42;;;;;;;1.30;0.60;;;;;;;23.82;34.04;100001.91;6255611;28;20041;-88
2022/07/11 13:54:43;;;;;;;6.10;0.70;;;;;;;24.05;33.06;99993.03;6273707;28;20044;-90
2022/07/11 13:57:49;;;;;;;1.73;0.60;;;;;;;24.19;32.05;99989.56;6272556;28;20522;-82
2022/07/11 14:00:52;;;;;;;1.98;0.55;;;;;;;24.50;33.24;99989.41;6238746;28;20045;-82
2022/07/11 14:03:52;;;;;;;0.68;0.50;;;;;;;24.21;33.12;99978.72;6271780;28;20462;-80
2022/07/11 14:06:54;;;;;;;3.72;0.85;;;;;;;24.01;33.15;99981.94;6238172;28;20484;-79
2022/07/11 14:09:55;;;;;;;4.85;1.20;;;;;;;23.62;33.24;99988.28;6254061;28;20406;-81
2022/07/11 14:12:59;;;;;;;2.55;0.60;;;;;;;23.70;33.39;99985.53;6238054;28;20043;-80
2022/07/11 14:16:00;;;;;;;1.58;0.60;;;;;;;23.30;32.89;99987.53;6254389;28;20051;-83
2022/07/11 14:19:07;;;;;;;6.95;0.57;;;;;;;23.20;34.10;99986.09;6238272;28;20037;-92
2022/07/11 14:22:12;;;;;;;1.77;0.50;;;;;;;23.00;33.98;99975.06;6254752;28;20040;-88
2022/07/11 14:25:13;;;;;;;0.85;0.57;;;;;;;22.83;34.17;99979.66;6255885;28;20049;-88
2022/07/11 14:28:14;;;;;;;5.77;0.70;;;;;;;22.58;34.67;99978.97;6255854;28;20449;-90
2022/07/11 14:31:16;;;;;;;1.45;0.50;;;;;;;23.10;34.14;99987.19;6255257;28;20388;-92